createdAt,value
2018-09-20T00:04:30.626Z,77.900002
2018-09-20T00:09:32.004Z,78.599998
2018-09-20T00:14:34.335Z,78.300003
2018-09-20T00:19:36.516Z,78.5
2018-09-20T00:24:38.802Z,79.300003
2018-09-20T00:29:41.119Z,79.099998
2018-09-20T00:34:43.489Z,80.099998
2018-09-20T00:39:45.638Z,83.900002
2018-09-20T00:44:48.127Z,82.699997
2018-09-20T00:49:50.282Z,84.300003
2018-09-20T00:54:52.549Z,83.599998
2018-09-20T00:59:54.848Z,81.800003
2018-09-20T01:04:57.125Z,80.599998
2018-09-20T01:09:59.514Z,80.5
2018-09-20T01:15:01.830Z,82.099998
2018-09-20T01:20:04.023Z,81.900002
2018-09-20T01:25:06.332Z,81.400002
2018-09-20T01:30:08.759Z,81.900002
2018-09-20T01:35:11.080Z,82.400002
2018-09-20T01:40:13.188Z,82.599998
2018-09-20T01:45:15.615Z,82.599998
2018-09-20T01:50:17.749Z,83.099998
2018-09-20T01:55:20.117Z,83.599998
2018-09-20T02:00:22.316Z,84.699997
2018-09-20T02:05:24.719Z,84.800003
2018-09-20T02:10:27.159Z,84.5
2018-09-20T02:15:29.502Z,84.800003
2018-09-20T02:20:31.635Z,84.699997
2018-09-20T02:25:33.800Z,85.099998
2018-09-20T02:30:36.223Z,85.900002
2018-09-20T02:35:38.414Z,90.199997
2018-09-20T02:40:40.780Z,90.099998
2018-09-20T02:45:43.041Z,89.300003
2018-09-20T02:50:45.425Z,88.800003
2018-09-20T02:55:47.728Z,88.599998
2018-09-20T03:00:50.140Z,87.5
2018-09-20T03:05:52.350Z,87.300003
2018-09-20T03:10:54.447Z,85.800003
2018-09-20T03:15:56.802Z,84.699997
2018-09-20T03:20:59.287Z,84.300003
2018-09-20T03:26:01.365Z,85.400002
2018-09-20T03:31:03.722Z,87.400002
2018-09-20T03:36:06.022Z,88.099998
2018-09-20T03:41:08.325Z,89.5
2018-09-20T03:46:10.585Z,88.900002
2018-09-20T03:51:12.983Z,88.300003
2018-09-20T03:56:15.229Z,87.900002
2018-09-20T04:01:17.468Z,87.800003
2018-09-20T04:06:19.790Z,87.699997
2018-09-20T04:11:22.062Z,87.699997
2018-09-20T04:16:24.480Z,87.5
2018-09-20T04:21:26.597Z,87.300003
2018-09-20T04:26:28.927Z,87.400002
2018-09-20T04:31:31.262Z,87.599998
2018-09-20T04:36:33.431Z,87.599998
2018-09-20T04:41:35.821Z,87.900002
2018-09-20T04:46:38.053Z,87.400002
2018-09-20T04:51:40.552Z,86.900002
2018-09-20T04:56:42.741Z,86.400002
2018-09-20T05:01:45.164Z,88.599998
2018-09-20T05:06:47.399Z,89.5
2018-09-20T05:11:49.583Z,89.800003
2018-09-20T05:16:51.808Z,89.099998
2018-09-20T05:21:54.200Z,89
2018-09-20T05:26:56.488Z,88.599998
2018-09-20T05:31:58.743Z,87.900002
2018-09-20T05:37:01.025Z,88
2018-09-20T05:42:03.353Z,89.099998
2018-09-20T05:47:05.649Z,90
2018-09-20T05:52:07.919Z,89.699997
2018-09-20T05:57:10.221Z,89.5
2018-09-20T06:02:12.482Z,89.400002
2018-09-20T06:07:14.855Z,89
2018-09-20T06:12:17.052Z,88.5
2018-09-20T06:17:19.403Z,88.199997
2018-09-20T06:22:21.753Z,88.300003
2018-09-20T06:27:23.941Z,88
2018-09-20T06:32:26.259Z,87.5
2018-09-20T06:37:28.618Z,86.800003
2018-09-20T06:42:30.844Z,85.900002
2018-09-20T06:47:33.067Z,85
2018-09-20T06:52:35.355Z,84.099998
2018-09-20T06:57:37.657Z,83.5
2018-09-20T07:02:40.042Z,82.5
2018-09-20T07:07:42.277Z,81.699997
2018-09-20T07:12:44.645Z,80.800003
2018-09-20T07:17:46.896Z,79.599998
2018-09-20T07:22:49.171Z,78.599998
2018-09-20T07:27:51.529Z,77
2018-09-20T07:32:54.065Z,76.400002
2018-09-20T07:42:58.445Z,75
2018-09-20T07:48:00.629Z,74.400002
2018-09-20T07:53:02.980Z,75
2018-09-20T07:58:05.276Z,75
2018-09-20T08:03:07.597Z,75
2018-09-20T08:08:09.839Z,73.800003
2018-09-20T08:13:12.187Z,73.5
2018-09-20T08:18:14.495Z,72
2018-09-20T08:23:16.953Z,72.5
2018-09-20T08:28:19.090Z,71.400002
2018-09-20T08:33:21.377Z,71.5
2018-09-20T08:38:23.580Z,69.900002
2018-09-20T08:43:25.903Z,70.300003
2018-09-20T08:48:28.343Z,69.300003
2018-09-20T08:53:30.536Z,68.300003
2018-09-20T08:58:32.753Z,68.300003
2018-09-20T09:03:35.086Z,67.900002
2018-09-20T09:08:37.439Z,67.599998
2018-09-20T09:13:39.639Z,66.099998
2018-09-20T09:18:41.999Z,65
2018-09-20T09:23:44.285Z,65.199997
2018-09-20T09:28:46.601Z,64.099998
2018-09-20T09:33:48.891Z,62.200001
2018-09-20T09:38:51.147Z,62.799999
2018-09-20T09:43:53.513Z,62.900002
2018-09-20T09:48:55.748Z,60.799999
2018-09-20T09:53:57.973Z,61
2018-09-20T09:59:00.354Z,60.200001
2018-09-20T10:04:02.775Z,60.799999
2018-09-20T10:09:05.001Z,61.099998
2018-09-20T10:14:07.207Z,59.700001
2018-09-20T10:19:09.491Z,59.799999
2018-09-20T10:24:11.848Z,57.799999
2018-09-20T10:29:14.017Z,56.700001
2018-09-20T10:34:16.450Z,56.900002
2018-09-20T10:39:18.811Z,57.099998
2018-09-20T10:44:20.897Z,56.099998
2018-09-20T10:49:23.211Z,55
2018-09-20T10:54:25.604Z,52.799999
2018-09-20T10:59:27.966Z,56.299999
2018-09-20T11:04:30.160Z,52.599998
2018-09-20T11:09:32.529Z,51.799999
2018-09-20T11:14:34.733Z,52.599998
2018-09-20T11:19:37.103Z,51.599998
2018-09-20T11:24:39.387Z,49.799999
2018-09-20T11:29:41.633Z,45.900002
2018-09-20T11:34:43.834Z,44.700001
2018-09-20T11:39:46.251Z,44.200001
2018-09-20T11:44:48.456Z,43.900002
2018-09-20T11:49:50.933Z,43.099998
2018-09-20T11:54:53.211Z,39.700001
2018-09-20T11:59:55.376Z,39.900002
2018-09-20T12:04:57.594Z,40.5
2018-09-20T12:09:59.972Z,37.400002
2018-09-20T12:15:02.942Z,36.400002
2018-09-20T12:20:04.577Z,37.400002
2018-09-20T12:25:06.817Z,36.599998
2018-09-20T12:30:09.414Z,35.799999
2018-09-20T12:35:11.472Z,35.799999
2018-09-20T12:40:13.752Z,36.200001
2018-09-20T12:45:16.147Z,35.599998
2018-09-20T12:50:18.309Z,36.5
2018-09-20T12:55:20.643Z,35.700001
2018-09-20T13:00:22.927Z,34.900002
2018-09-20T13:05:25.346Z,35.799999
2018-09-20T13:10:27.520Z,34.5
2018-09-20T13:15:29.780Z,33.599998
2018-09-20T13:20:32.095Z,34.099998
2018-09-20T13:25:34.685Z,34
2018-09-20T13:30:36.683Z,34
2018-09-20T13:35:38.973Z,34.900002
2018-09-20T13:40:41.273Z,34.599998
2018-09-20T13:45:43.566Z,34.799999
2018-09-20T13:50:45.893Z,34.799999
2018-09-20T13:55:48.206Z,34.5
2018-09-20T14:00:50.522Z,35.099998
2018-09-20T14:05:52.806Z,36.900002
2018-09-20T14:10:54.996Z,36.099998
2018-09-20T14:15:57.487Z,36
2018-09-20T14:21:00.282Z,35.799999
2018-09-20T14:26:01.961Z,35.799999
2018-09-20T14:31:04.170Z,35.599998
2018-09-20T14:36:06.545Z,36.5
2018-09-20T14:41:08.936Z,37.200001
2018-09-20T14:46:11.173Z,37.900002
2018-09-20T14:51:13.399Z,39.099998
2018-09-20T14:56:15.612Z,38
2018-09-20T15:01:18.072Z,37.599998
2018-09-20T15:06:20.291Z,38.200001
2018-09-20T15:11:22.599Z,39
2018-09-20T15:16:24.894Z,40.299999
2018-09-20T15:21:27.280Z,40.599998
2018-09-20T15:26:29.433Z,40.900002
2018-09-20T15:31:31.723Z,41.5
2018-09-20T15:36:34.235Z,42
2018-09-20T15:41:36.348Z,42.5
2018-09-20T15:46:38.819Z,42.099998
2018-09-20T15:51:41.044Z,41.5
2018-09-20T15:56:43.391Z,40.099998
2018-09-20T16:01:45.492Z,40.599998
2018-09-20T16:06:47.779Z,41.099998
2018-09-20T16:11:50.397Z,42.799999
2018-09-20T16:16:52.396Z,42.5
2018-09-20T16:21:54.685Z,41.799999
2018-09-20T16:26:56.985Z,42.5
2018-09-20T16:31:59.332Z,43.299999
2018-09-20T16:37:01.580Z,43.400002
2018-09-20T16:42:04.016Z,44.5
2018-09-20T16:47:06.142Z,45.400002
2018-09-20T16:52:08.617Z,46.099998
2018-09-20T16:57:10.881Z,46.599998
2018-09-20T17:02:13.038Z,46.799999
2018-09-20T17:07:15.579Z,47.099998
2018-09-20T17:12:17.676Z,47.599998
2018-09-20T17:17:20.054Z,47.799999
2018-09-20T17:22:22.171Z,48
2018-09-20T17:27:24.585Z,48.599998
2018-09-20T17:32:26.858Z,48.900002
2018-09-20T17:37:29.198Z,48.900002
2018-09-20T17:42:31.368Z,49.099998
2018-09-20T17:47:33.790Z,49.5
2018-09-20T17:52:35.987Z,50.200001
2018-09-20T17:57:38.376Z,50.700001
2018-09-20T18:02:40.751Z,51.400002
2018-09-20T18:07:42.976Z,52
2018-09-20T18:12:45.241Z,53.400002
2018-09-20T18:17:47.468Z,53.900002
2018-09-20T18:22:49.918Z,54
2018-09-20T18:27:52.082Z,54.599998
2018-09-20T18:32:54.330Z,55.099998
2018-09-20T18:37:56.674Z,55
2018-09-20T18:42:59.036Z,55.700001
2018-09-20T18:48:01.361Z,55.700001
2018-09-20T18:53:03.465Z,55.700001
2018-09-20T18:58:05.899Z,56
2018-09-20T19:03:08.192Z,55.900002
2018-09-20T19:08:10.399Z,55.700001
2018-09-20T19:13:12.719Z,55.5
2018-09-20T19:18:15.020Z,55.200001
2018-09-20T19:23:17.247Z,55.299999
2018-09-20T19:28:19.639Z,55.5
2018-09-20T19:33:21.881Z,56
2018-09-20T19:38:24.139Z,56.099998
2018-09-20T19:43:26.548Z,56.599998
2018-09-20T19:48:28.736Z,56.5
2018-09-20T19:53:31.108Z,57.099998
2018-09-20T19:58:33.272Z,56.700001
2018-09-20T20:03:35.658Z,57
2018-09-20T20:08:37.976Z,56.900002
2018-09-20T20:13:40.284Z,56.700001
2018-09-20T20:18:42.508Z,56.799999
2018-09-20T20:23:44.798Z,56.900002
2018-09-20T20:28:47.160Z,56.900002
2018-09-20T20:33:49.526Z,57.099998
2018-09-20T20:38:51.717Z,57.299999
2018-09-20T20:43:54.075Z,57.599998
2018-09-20T20:48:56.399Z,57.599998
2018-09-20T20:53:58.657Z,57.5
2018-09-20T20:59:00.934Z,57.700001
2018-09-20T21:04:03.158Z,57.799999
2018-09-20T21:09:05.571Z,57.599998
2018-09-20T21:14:07.711Z,57.700001
2018-09-20T21:19:10.037Z,57.900002
2018-09-20T21:24:12.363Z,58
2018-09-20T21:29:14.716Z,57.900002
2018-09-20T21:34:16.935Z,57.900002
2018-09-20T21:39:19.298Z,57.900002
2018-09-20T21:44:21.564Z,57.900002
2018-09-20T21:49:23.864Z,58.099998
2018-09-20T21:54:26.135Z,57.900002
2018-09-20T21:59:28.407Z,58
2018-09-20T22:04:30.732Z,58
2018-09-20T22:09:33.059Z,58
2018-09-20T22:14:35.353Z,58
2018-09-20T22:19:38.127Z,57.799999
2018-09-20T22:24:39.903Z,57.599998
2018-09-20T22:29:42.284Z,57.799999
2018-09-20T22:34:44.554Z,58.099998
2018-09-20T22:39:46.794Z,57.799999
2018-09-20T22:44:49.359Z,57.599998
2018-09-20T22:49:51.406Z,57.799999
2018-09-20T22:54:53.802Z,57.700001
2018-09-20T22:59:55.917Z,57.799999
2018-09-20T23:04:59.634Z,58.099998
2018-09-20T23:10:00.484Z,58.400002
2018-09-20T23:15:02.957Z,58.700001
2018-09-20T23:20:05.186Z,58.700001
2018-09-20T23:30:09.699Z,58.599998
2018-09-20T23:35:12.199Z,58.799999
2018-09-20T23:40:14.324Z,58.900002
2018-09-20T23:45:16.573Z,59
2018-09-20T23:50:18.889Z,59.400002
2018-09-20T23:55:21.171Z,59.599998
